sensor_id;sensor_type;location;lat;lon;timestamp;P1;durP1;ratioP1;P2;durP2;ratioP2
52450;SDS011;38366;53.176;6.540;2022-11-15T00:00:50;21.60;;;13.05;;
52450;SDS011;38366;53.176;6.540;2022-11-15T00:03:16;22.48;;;12.57;;
52450;SDS011;38366;53.176;6.540;2022-11-15T00:05:43;22.95;;;12.63;;
52450;SDS011;38366;53.176;6.540;2022-11-15T00:08:09;29.48;;;13.52;;
52450;SDS011;38366;53.176;6.540;2022-11-15T00:10:35;24.38;;;12.95;;
52450;SDS011;38366;53.176;6.540;2022-11-15T00:13:05;23.95;;;13.18;;
52450;SDS011;38366;53.176;6.540;2022-11-15T00:15:34;24.15;;;13.15;;
52450;SDS011;38366;53.176;6.540;2022-11-15T00:18:01;24.00;;;12.77;;
52450;SDS011;38366;53.176;6.540;2022-11-15T00:20:27;22.15;;;12.15;;
52450;SDS011;38366;53.176;6.540;2022-11-15T00:22:53;24.13;;;13.53;;
52450;SDS011;38366;53.176;6.540;2022-11-15T00:25:18;25.97;;;13.17;;
52450;SDS011;38366;53.176;6.540;2022-11-15T00:27:44;25.10;;;14.07;;
52450;SDS011;38366;53.176;6.540;2022-11-15T00:30:10;24.73;;;12.52;;
52450;SDS011;38366;53.176;6.540;2022-11-15T00:32:36;23.05;;;13.20;;
52450;SDS011;38366;53.176;6.540;2022-11-15T00:35:02;22.63;;;12.48;;
52450;SDS011;38366;53.176;6.540;2022-11-15T00:37:28;23.92;;;13.18;;
52450;SDS011;38366;53.176;6.540;2022-11-15T00:39:54;23.40;;;12.60;;
52450;SDS011;38366;53.176;6.540;2022-11-15T00:42:19;26.43;;;13.50;;
52450;SDS011;38366;53.176;6.540;2022-11-15T00:44:45;24.70;;;13.27;;
52450;SDS011;38366;53.176;6.540;2022-11-15T00:47:10;24.93;;;12.93;;
52450;SDS011;38366;53.176;6.540;2022-11-15T00:49:36;22.93;;;12.53;;
52450;SDS011;38366;53.176;6.540;2022-11-15T00:52:02;23.67;;;13.23;;
52450;SDS011;38366;53.176;6.540;2022-11-15T00:54:28;24.27;;;13.25;;
52450;SDS011;38366;53.176;6.540;2022-11-15T00:56:53;25.42;;;12.73;;
52450;SDS011;38366;53.176;6.540;2022-11-15T00:59:19;24.87;;;13.47;;
52450;SDS011;38366;53.176;6.540;2022-11-15T01:01:45;26.63;;;13.30;;
52450;SDS011;38366;53.176;6.540;2022-11-15T01:04:10;23.03;;;13.03;;
52450;SDS011;38366;53.176;6.540;2022-11-15T01:06:36;24.10;;;12.88;;
52450;SDS011;38366;53.176;6.540;2022-11-15T01:09:02;20.97;;;12.70;;
52450;SDS011;38366;53.176;6.540;2022-11-15T01:11:28;20.63;;;11.85;;
52450;SDS011;38366;53.176;6.540;2022-11-15T01:13:54;19.65;;;10.23;;
52450;SDS011;38366;53.176;6.540;2022-11-15T01:16:20;20.30;;;11.38;;
52450;SDS011;38366;53.176;6.540;2022-11-15T01:18:46;23.77;;;12.30;;
52450;SDS011;38366;53.176;6.540;2022-11-15T01:21:13;21.53;;;11.83;;
52450;SDS011;38366;53.176;6.540;2022-11-15T01:23:41;20.48;;;11.93;;
52450;SDS011;38366;53.176;6.540;2022-11-15T01:26:07;21.13;;;11.93;;
52450;SDS011;38366;53.176;6.540;2022-11-15T01:28:36;19.80;;;11.68;;
52450;SDS011;38366;53.176;6.540;2022-11-15T01:31:03;22.27;;;12.38;;
52450;SDS011;38366;53.176;6.540;2022-11-15T01:33:33;26.15;;;13.02;;
52450;SDS011;38366;53.176;6.540;2022-11-15T01:36:05;26.13;;;12.35;;
52450;SDS011;38366;53.176;6.540;2022-11-15T01:38:33;26.52;;;14.75;;
52450;SDS011;38366;53.176;6.540;2022-11-15T01:43:35;21.63;;;12.88;;
52450;SDS011;38366;53.176;6.540;2022-11-15T01:48:45;24.92;;;13.27;;
52450;SDS011;38366;53.176;6.540;2022-11-15T01:51:11;26.17;;;13.33;;
52450;SDS011;38366;53.176;6.540;2022-11-15T01:53:41;23.40;;;13.07;;
52450;SDS011;38366;53.176;6.540;2022-11-15T01:56:14;21.85;;;10.80;;
52450;SDS011;38366;53.176;6.540;2022-11-15T01:58:44;26.60;;;13.63;;
52450;SDS011;38366;53.176;6.540;2022-11-15T02:01:11;24.30;;;12.90;;
52450;SDS011;38366;53.176;6.540;2022-11-15T02:06:45;24.42;;;12.48;;
52450;SDS011;38366;53.176;6.540;2022-11-15T02:09:13;26.58;;;14.13;;
52450;SDS011;38366;53.176;6.540;2022-11-15T02:11:39;23.73;;;11.63;;
52450;SDS011;38366;53.176;6.540;2022-11-15T02:16:51;23.65;;;11.75;;
52450;SDS011;38366;53.176;6.540;2022-11-15T02:28:06;24.80;;;12.13;;
52450;SDS011;38366;53.176;6.540;2022-11-15T02:39:18;28.03;;;13.33;;
52450;SDS011;38366;53.176;6.540;2022-11-15T02:44:36;28.67;;;14.40;;
52450;SDS011;38366;53.176;6.540;2022-11-15T02:47:08;28.20;;;13.70;;
52450;SDS011;38366;53.176;6.540;2022-11-15T02:49:47;24.15;;;12.45;;
52450;SDS011;38366;53.176;6.540;2022-11-15T02:52:22;29.48;;;13.90;;
52450;SDS011;38366;53.176;6.540;2022-11-15T02:54:54;30.65;;;14.07;;
52450;SDS011;38366;53.176;6.540;2022-11-15T02:57:26;26.80;;;13.55;;
52450;SDS011;38366;53.176;6.540;2022-11-15T03:06:04;26.75;;;13.77;;
52450;SDS011;38366;53.176;6.540;2022-11-15T03:08:39;31.35;;;15.18;;
52450;SDS011;38366;53.176;6.540;2022-11-15T03:11:20;28.30;;;12.73;;
52450;SDS011;38366;53.176;6.540;2022-11-15T03:16:37;28.17;;;13.20;;
52450;SDS011;38366;53.176;6.540;2022-11-15T03:19:32;29.80;;;13.95;;
52450;SDS011;38366;53.176;6.540;2022-11-15T03:22:05;30.27;;;14.07;;
52450;SDS011;38366;53.176;6.540;2022-11-15T03:24:34;34.50;;;13.82;;
52450;SDS011;38366;53.176;6.540;2022-11-15T03:27:02;32.00;;;14.48;;
52450;SDS011;38366;53.176;6.540;2022-11-15T03:29:32;31.58;;;13.13;;
52450;SDS011;38366;53.176;6.540;2022-11-15T03:32:08;30.85;;;14.73;;
52450;SDS011;38366;53.176;6.540;2022-11-15T03:34:41;31.08;;;13.73;;
52450;SDS011;38366;53.176;6.540;2022-11-15T03:37:07;32.50;;;14.15;;
52450;SDS011;38366;53.176;6.540;2022-11-15T03:39:34;29.75;;;14.48;;
52450;SDS011;38366;53.176;6.540;2022-11-15T03:45:02;34.45;;;14.75;;
52450;SDS011;38366;53.176;6.540;2022-11-15T03:47:29;34.40;;;14.48;;
52450;SDS011;38366;53.176;6.540;2022-11-15T03:50:01;32.75;;;14.93;;
52450;SDS011;38366;53.176;6.540;2022-11-15T03:52:32;34.15;;;13.90;;
52450;SDS011;38366;53.176;6.540;2022-11-15T03:54:59;29.77;;;13.20;;
52450;SDS011;38366;53.176;6.540;2022-11-15T03:57:28;31.30;;;14.63;;
52450;SDS011;38366;53.176;6.540;2022-11-15T03:59:54;34.23;;;15.07;;
52450;SDS011;38366;53.176;6.540;2022-11-15T04:02:19;30.70;;;12.97;;
52450;SDS011;38366;53.176;6.540;2022-11-15T04:04:45;34.37;;;14.03;;
52450;SDS011;38366;53.176;6.540;2022-11-15T04:07:11;29.17;;;13.37;;
52450;SDS011;38366;53.176;6.540;2022-11-15T04:09:37;33.38;;;12.52;;
52450;SDS011;38366;53.176;6.540;2022-11-15T04:12:22;36.20;;;13.50;;
52450;SDS011;38366;53.176;6.540;2022-11-15T04:15:03;31.75;;;13.57;;
52450;SDS011;38366;53.176;6.540;2022-11-15T04:20:07;35.60;;;14.55;;
52450;SDS011;38366;53.176;6.540;2022-11-15T04:22:55;35.50;;;15.38;;
52450;SDS011;38366;53.176;6.540;2022-11-15T04:25:41;39.17;;;14.65;;
52450;SDS011;38366;53.176;6.540;2022-11-15T04:30:33;36.05;;;15.77;;
52450;SDS011;38366;53.176;6.540;2022-11-15T04:32:59;36.28;;;14.50;;
52450;SDS011;38366;53.176;6.540;2022-11-15T04:35:24;35.37;;;15.40;;
52450;SDS011;38366;53.176;6.540;2022-11-15T04:37:50;36.78;;;15.48;;
52450;SDS011;38366;53.176;6.540;2022-11-15T04:40:16;40.72;;;15.02;;
52450;SDS011;38366;53.176;6.540;2022-11-15T04:42:42;39.53;;;16.40;;
52450;SDS011;38366;53.176;6.540;2022-11-15T04:45:08;45.97;;;17.87;;
52450;SDS011;38366;53.176;6.540;2022-11-15T04:50:00;42.90;;;16.80;;
52450;SDS011;38366;53.176;6.540;2022-11-15T04:52:25;40.23;;;16.37;;
52450;SDS011;38366;53.176;6.540;2022-11-15T04:54:51;39.50;;;15.35;;
52450;SDS011;38366;53.176;6.540;2022-11-15T04:57:17;45.00;;;17.08;;
52450;SDS011;38366;53.176;6.540;2022-11-15T04:59:43;44.22;;;17.00;;
52450;SDS011;38366;53.176;6.540;2022-11-15T05:02:09;45.83;;;17.40;;
52450;SDS011;38366;53.176;6.540;2022-11-15T05:04:35;47.20;;;18.10;;
52450;SDS011;38366;53.176;6.540;2022-11-15T05:07:00;51.90;;;19.00;;
52450;SDS011;38366;53.176;6.540;2022-11-15T05:09:27;50.65;;;18.77;;
52450;SDS011;38366;53.176;6.540;2022-11-15T05:11:52;52.95;;;17.98;;
52450;SDS011;38366;53.176;6.540;2022-11-15T05:14:18;50.50;;;19.25;;
52450;SDS011;38366;53.176;6.540;2022-11-15T05:16:44;46.90;;;18.60;;
52450;SDS011;38366;53.176;6.540;2022-11-15T05:19:09;49.17;;;17.97;;
52450;SDS011;38366;53.176;6.540;2022-11-15T05:21:35;54.38;;;18.92;;
52450;SDS011;38366;53.176;6.540;2022-11-15T05:24:02;54.00;;;20.33;;
52450;SDS011;38366;53.176;6.540;2022-11-15T05:26:28;56.05;;;20.15;;
52450;SDS011;38366;53.176;6.540;2022-11-15T05:28:54;51.57;;;18.90;;
52450;SDS011;38366;53.176;6.540;2022-11-15T05:31:21;58.47;;;21.13;;
52450;SDS011;38366;53.176;6.540;2022-11-15T05:33:48;61.97;;;21.25;;
52450;SDS011;38366;53.176;6.540;2022-11-15T05:39:03;68.75;;;21.90;;
52450;SDS011;38366;53.176;6.540;2022-11-15T05:41:34;69.15;;;22.85;;
52450;SDS011;38366;53.176;6.540;2022-11-15T05:44:06;73.18;;;24.30;;
52450;SDS011;38366;53.176;6.540;2022-11-15T05:46:34;79.07;;;24.83;;
52450;SDS011;38366;53.176;6.540;2022-11-15T05:49:01;71.93;;;23.20;;
52450;SDS011;38366;53.176;6.540;2022-11-15T05:51:29;65.95;;;22.02;;
52450;SDS011;38366;53.176;6.540;2022-11-15T05:53:56;67.25;;;22.73;;
52450;SDS011;38366;53.176;6.540;2022-11-15T05:56:23;79.13;;;24.80;;
52450;SDS011;38366;53.176;6.540;2022-11-15T05:58:49;74.88;;;23.65;;
52450;SDS011;38366;53.176;6.540;2022-11-15T06:01:19;84.57;;;26.08;;
52450;SDS011;38366;53.176;6.540;2022-11-15T06:03:45;83.87;;;25.10;;
52450;SDS011;38366;53.176;6.540;2022-11-15T06:06:10;81.80;;;25.13;;
52450;SDS011;38366;53.176;6.540;2022-11-15T06:08:36;78.73;;;26.43;;
52450;SDS011;38366;53.176;6.540;2022-11-15T06:11:05;91.00;;;26.47;;
52450;SDS011;38366;53.176;6.540;2022-11-15T06:13:32;63.83;;;22.58;;
52450;SDS011;38366;53.176;6.540;2022-11-15T06:15:58;81.72;;;27.52;;
52450;SDS011;38366;53.176;6.540;2022-11-15T06:18:24;72.75;;;27.45;;
52450;SDS011;38366;53.176;6.540;2022-11-15T06:20:50;78.28;;;24.98;;
52450;SDS011;38366;53.176;6.540;2022-11-15T06:23:16;80.97;;;26.40;;
52450;SDS011;38366;53.176;6.540;2022-11-15T06:25:42;84.38;;;27.25;;
52450;SDS011;38366;53.176;6.540;2022-11-15T06:28:08;78.93;;;26.75;;
52450;SDS011;38366;53.176;6.540;2022-11-15T06:30:33;66.87;;;23.83;;
52450;SDS011;38366;53.176;6.540;2022-11-15T06:33:03;80.33;;;25.83;;
52450;SDS011;38366;53.176;6.540;2022-11-15T06:35:30;67.75;;;23.88;;
52450;SDS011;38366;53.176;6.540;2022-11-15T06:38:06;74.90;;;27.15;;
52450;SDS011;38366;53.176;6.540;2022-11-15T06:40:34;82.43;;;27.60;;
52450;SDS011;38366;53.176;6.540;2022-11-15T06:43:01;79.05;;;25.48;;
52450;SDS011;38366;53.176;6.540;2022-11-15T06:45:28;78.45;;;27.35;;
52450;SDS011;38366;53.176;6.540;2022-11-15T06:47:54;79.60;;;28.77;;
52450;SDS011;38366;53.176;6.540;2022-11-15T06:50:19;79.27;;;26.40;;
52450;SDS011;38366;53.176;6.540;2022-11-15T06:52:45;81.18;;;25.98;;
52450;SDS011;38366;53.176;6.540;2022-11-15T06:55:11;78.20;;;27.73;;
52450;SDS011;38366;53.176;6.540;2022-11-15T06:57:36;67.50;;;24.40;;
52450;SDS011;38366;53.176;6.540;2022-11-15T07:00:05;73.20;;;25.20;;
52450;SDS011;38366;53.176;6.540;2022-11-15T07:02:31;67.13;;;24.13;;
52450;SDS011;38366;53.176;6.540;2022-11-15T07:04:57;66.27;;;25.03;;
52450;SDS011;38366;53.176;6.540;2022-11-15T07:07:23;63.80;;;23.93;;
52450;SDS011;38366;53.176;6.540;2022-11-15T07:09:48;85.23;;;28.10;;
52450;SDS011;38366;53.176;6.540;2022-11-15T07:12:14;68.90;;;23.40;;
52450;SDS011;38366;53.176;6.540;2022-11-15T07:14:40;64.10;;;22.23;;
52450;SDS011;38366;53.176;6.540;2022-11-15T07:17:05;60.13;;;22.43;;
52450;SDS011;38366;53.176;6.540;2022-11-15T07:19:31;65.38;;;23.73;;
52450;SDS011;38366;53.176;6.540;2022-11-15T07:21:57;42.00;;;16.23;;
52450;SDS011;38366;53.176;6.540;2022-11-15T07:24:22;65.70;;;22.80;;
52450;SDS011;38366;53.176;6.540;2022-11-15T07:26:48;68.77;;;24.63;;
52450;SDS011;38366;53.176;6.540;2022-11-15T07:29:14;68.83;;;23.70;;
52450;SDS011;38366;53.176;6.540;2022-11-15T07:31:39;78.77;;;26.20;;
52450;SDS011;38366;53.176;6.540;2022-11-15T07:34:05;76.83;;;25.50;;
52450;SDS011;38366;53.176;6.540;2022-11-15T07:36:31;60.30;;;20.90;;
52450;SDS011;38366;53.176;6.540;2022-11-15T07:38:56;57.22;;;22.48;;
52450;SDS011;38366;53.176;6.540;2022-11-15T07:41:22;62.17;;;22.73;;
52450;SDS011;38366;53.176;6.540;2022-11-15T07:43:50;65.28;;;24.48;;
52450;SDS011;38366;53.176;6.540;2022-11-15T07:46:17;65.32;;;22.65;;
52450;SDS011;38366;53.176;6.540;2022-11-15T07:48:43;56.03;;;21.03;;
52450;SDS011;38366;53.176;6.540;2022-11-15T07:51:12;67.87;;;24.77;;
52450;SDS011;38366;53.176;6.540;2022-11-15T07:53:39;65.60;;;23.33;;
52450;SDS011;38366;53.176;6.540;2022-11-15T07:56:08;52.60;;;21.90;;
52450;SDS011;38366;53.176;6.540;2022-11-15T07:58:34;58.28;;;21.50;;
52450;SDS011;38366;53.176;6.540;2022-11-15T08:01:04;66.13;;;25.42;;
52450;SDS011;38366;53.176;6.540;2022-11-15T08:03:31;53.03;;;20.48;;
52450;SDS011;38366;53.176;6.540;2022-11-15T08:05:57;59.05;;;23.98;;
52450;SDS011;38366;53.176;6.540;2022-11-15T08:08:22;46.60;;;19.25;;
52450;SDS011;38366;53.176;6.540;2022-11-15T08:10:48;55.08;;;19.63;;
52450;SDS011;38366;53.176;6.540;2022-11-15T08:13:14;55.03;;;22.30;;
52450;SDS011;38366;53.176;6.540;2022-11-15T08:15:40;43.55;;;18.83;;
52450;SDS011;38366;53.176;6.540;2022-11-15T08:18:08;50.58;;;21.23;;
52450;SDS011;38366;53.176;6.540;2022-11-15T08:20:36;52.50;;;21.85;;
52450;SDS011;38366;53.176;6.540;2022-11-15T08:23:03;52.17;;;20.38;;
52450;SDS011;38366;53.176;6.540;2022-11-15T08:25:30;51.63;;;21.13;;
52450;SDS011;38366;53.176;6.540;2022-11-15T08:27:58;50.78;;;21.50;;
52450;SDS011;38366;53.176;6.540;2022-11-15T08:30:26;41.85;;;19.52;;
52450;SDS011;38366;53.176;6.540;2022-11-15T08:32:52;44.88;;;18.90;;
52450;SDS011;38366;53.176;6.540;2022-11-15T08:35:21;41.40;;;20.73;;
52450;SDS011;38366;53.176;6.540;2022-11-15T08:37:47;43.77;;;21.20;;
52450;SDS011;38366;53.176;6.540;2022-11-15T08:40:13;29.85;;;17.05;;
52450;SDS011;38366;53.176;6.540;2022-11-15T08:42:39;40.10;;;18.83;;
52450;SDS011;38366;53.176;6.540;2022-11-15T08:45:05;36.75;;;19.35;;
52450;SDS011;38366;53.176;6.540;2022-11-15T08:47:32;36.95;;;17.98;;
52450;SDS011;38366;53.176;6.540;2022-11-15T08:49:57;42.92;;;19.90;;
52450;SDS011;38366;53.176;6.540;2022-11-15T08:52:23;39.65;;;18.40;;
52450;SDS011;38366;53.176;6.540;2022-11-15T08:54:49;38.00;;;17.75;;
52450;SDS011;38366;53.176;6.540;2022-11-15T08:57:15;33.97;;;16.80;;
52450;SDS011;38366;53.176;6.540;2022-11-15T08:59:40;32.67;;;16.67;;
52450;SDS011;38366;53.176;6.540;2022-11-15T09:02:10;34.73;;;15.73;;
52450;SDS011;38366;53.176;6.540;2022-11-15T09:04:43;32.53;;;16.00;;
52450;SDS011;38366;53.176;6.540;2022-11-15T09:07:10;31.92;;;17.83;;
52450;SDS011;38366;53.176;6.540;2022-11-15T09:09:36;34.30;;;16.40;;
52450;SDS011;38366;53.176;6.540;2022-11-15T09:12:02;33.97;;;15.20;;
52450;SDS011;38366;53.176;6.540;2022-11-15T09:14:28;32.75;;;15.93;;
52450;SDS011;38366;53.176;6.540;2022-11-15T09:16:54;33.40;;;15.05;;
52450;SDS011;38366;53.176;6.540;2022-11-15T09:19:20;27.85;;;15.32;;
52450;SDS011;38366;53.176;6.540;2022-11-15T09:21:46;25.58;;;12.73;;
52450;SDS011;38366;53.176;6.540;2022-11-15T09:24:12;25.30;;;15.13;;
52450;SDS011;38366;53.176;6.540;2022-11-15T09:26:38;26.60;;;14.65;;
52450;SDS011;38366;53.176;6.540;2022-11-15T09:31:32;27.45;;;14.25;;
52450;SDS011;38366;53.176;6.540;2022-11-15T09:33:58;20.35;;;11.50;;
52450;SDS011;38366;53.176;6.540;2022-11-15T09:36:24;24.10;;;12.80;;
52450;SDS011;38366;53.176;6.540;2022-11-15T09:38:49;24.55;;;13.15;;
52450;SDS011;38366;53.176;6.540;2022-11-15T09:49:16;26.10;;;14.35;;
52450;SDS011;38366;53.176;6.540;2022-11-15T09:54:32;21.67;;;12.93;;
52450;SDS011;38366;53.176;6.540;2022-11-15T09:57:09;23.30;;;13.43;;
52450;SDS011;38366;53.176;6.540;2022-11-15T09:59:50;22.55;;;13.05;;
52450;SDS011;38366;53.176;6.540;2022-11-15T10:02:58;22.27;;;13.60;;
52450;SDS011;38366;53.176;6.540;2022-11-15T10:05:48;25.65;;;12.73;;
52450;SDS011;38366;53.176;6.540;2022-11-15T10:11:05;22.63;;;13.57;;
52450;SDS011;38366;53.176;6.540;2022-11-15T10:13:34;21.77;;;13.15;;
52450;SDS011;38366;53.176;6.540;2022-11-15T10:21:57;24.27;;;13.15;;
52450;SDS011;38366;53.176;6.540;2022-11-15T10:24:37;20.55;;;12.25;;
52450;SDS011;38366;53.176;6.540;2022-11-15T10:27:09;23.73;;;13.25;;
52450;SDS011;38366;53.176;6.540;2022-11-15T10:29:40;24.52;;;12.00;;
52450;SDS011;38366;53.176;6.540;2022-11-15T10:32:10;23.52;;;12.55;;
52450;SDS011;38366;53.176;6.540;2022-11-15T10:34:37;21.50;;;12.50;;
52450;SDS011;38366;53.176;6.540;2022-11-15T10:37:03;24.33;;;11.63;;
52450;SDS011;38366;53.176;6.540;2022-11-15T10:39:29;24.02;;;12.25;;
52450;SDS011;38366;53.176;6.540;2022-11-15T10:41:55;18.60;;;11.25;;
52450;SDS011;38366;53.176;6.540;2022-11-15T10:44:23;19.15;;;12.07;;
52450;SDS011;38366;53.176;6.540;2022-11-15T10:49:25;20.77;;;11.05;;
52450;SDS011;38366;53.176;6.540;2022-11-15T10:54:23;21.08;;;11.73;;
52450;SDS011;38366;53.176;6.540;2022-11-15T10:56:55;21.63;;;11.40;;
52450;SDS011;38366;53.176;6.540;2022-11-15T10:59:25;20.27;;;11.13;;
52450;SDS011;38366;53.176;6.540;2022-11-15T11:01:53;25.17;;;11.20;;
52450;SDS011;38366;53.176;6.540;2022-11-15T11:04:19;20.73;;;11.77;;
52450;SDS011;38366;53.176;6.540;2022-11-15T11:09:19;21.53;;;12.00;;
52450;SDS011;38366;53.176;6.540;2022-11-15T11:11:50;21.77;;;11.98;;
52450;SDS011;38366;53.176;6.540;2022-11-15T11:17:03;19.10;;;10.75;;
52450;SDS011;38366;53.176;6.540;2022-11-15T11:20:11;21.58;;;11.77;;
52450;SDS011;38366;53.176;6.540;2022-11-15T11:31:33;18.27;;;11.93;;
52450;SDS011;38366;53.176;6.540;2022-11-15T11:34:20;19.95;;;11.73;;
52450;SDS011;38366;53.176;6.540;2022-11-15T11:37:12;19.27;;;11.05;;
52450;SDS011;38366;53.176;6.540;2022-11-15T11:45:19;18.13;;;9.93;;
52450;SDS011;38366;53.176;6.540;2022-11-15T11:47:57;16.50;;;9.73;;
52450;SDS011;38366;53.176;6.540;2022-11-15T11:50:36;16.15;;;10.10;;
52450;SDS011;38366;53.176;6.540;2022-11-15T11:55:39;10.43;;;6.72;;
52450;SDS011;38366;53.176;6.540;2022-11-15T12:09:41;11.35;;;4.40;;
52450;SDS011;38366;53.176;6.540;2022-11-15T12:17:34;6.28;;;3.22;;
52450;SDS011;38366;53.176;6.540;2022-11-15T12:20:22;6.82;;;2.80;;
52450;SDS011;38366;53.176;6.540;2022-11-15T12:23:35;5.60;;;2.85;;
52450;SDS011;38366;53.176;6.540;2022-11-15T12:25:50;4.15;;;2.33;;
52450;SDS011;38366;53.176;6.540;2022-11-15T12:31:15;4.70;;;2.65;;
52450;SDS011;38366;53.176;6.540;2022-11-15T12:39:00;5.93;;;2.88;;
52450;SDS011;38366;53.176;6.540;2022-11-15T12:41:32;5.88;;;2.47;;
52450;SDS011;38366;53.176;6.540;2022-11-15T12:43:59;4.00;;;2.10;;
52450;SDS011;38366;53.176;6.540;2022-11-15T12:48:58;6.53;;;1.58;;
52450;SDS011;38366;53.176;6.540;2022-11-15T13:02:35;6.20;;;1.85;;
52450;SDS011;38366;53.176;6.540;2022-11-15T13:17:37;7.47;;;3.43;;
52450;SDS011;38366;53.176;6.540;2022-11-15T13:30:49;4.80;;;2.92;;
52450;SDS011;38366;53.176;6.540;2022-11-15T13:35:54;6.90;;;2.80;;
52450;SDS011;38366;53.176;6.540;2022-11-15T13:38:30;5.22;;;2.85;;
52450;SDS011;38366;53.176;6.540;2022-11-15T13:40:58;5.22;;;2.85;;
52450;SDS011;38366;53.176;6.540;2022-11-15T13:48:32;5.65;;;2.78;;
52450;SDS011;38366;53.176;6.540;2022-11-15T13:50:59;5.97;;;2.50;;
52450;SDS011;38366;53.176;6.540;2022-11-15T13:53:31;6.30;;;2.35;;
52450;SDS011;38366;53.176;6.540;2022-11-15T13:55:58;7.20;;;2.50;;
52450;SDS011;38366;53.176;6.540;2022-11-15T14:00:57;3.47;;;2.30;;
52450;SDS011;38366;53.176;6.540;2022-11-15T14:03:29;3.53;;;1.90;;
52450;SDS011;38366;53.176;6.540;2022-11-15T14:08:31;6.95;;;2.13;;
52450;SDS011;38366;53.176;6.540;2022-11-15T14:16:47;4.47;;;2.10;;
52450;SDS011;38366;53.176;6.540;2022-11-15T14:19:36;3.90;;;2.20;;
52450;SDS011;38366;53.176;6.540;2022-11-15T14:22:20;4.50;;;1.90;;
52450;SDS011;38366;53.176;6.540;2022-11-15T14:27:31;4.82;;;1.92;;
52450;SDS011;38366;53.176;6.540;2022-11-15T14:29:58;3.45;;;1.80;;
52450;SDS011;38366;53.176;6.540;2022-11-15T14:32:25;3.35;;;1.95;;
52450;SDS011;38366;53.176;6.540;2022-11-15T14:34:59;3.38;;;1.88;;
52450;SDS011;38366;53.176;6.540;2022-11-15T14:37:26;2.90;;;1.70;;
52450;SDS011;38366;53.176;6.540;2022-11-15T14:40:02;4.57;;;1.90;;
52450;SDS011;38366;53.176;6.540;2022-11-15T14:42:29;5.63;;;2.00;;
52450;SDS011;38366;53.176;6.540;2022-11-15T14:44:56;3.20;;;1.80;;
52450;SDS011;38366;53.176;6.540;2022-11-15T14:47:22;3.17;;;1.65;;
52450;SDS011;38366;53.176;6.540;2022-11-15T14:49:47;5.00;;;2.22;;
52450;SDS011;38366;53.176;6.540;2022-11-15T14:52:27;4.03;;;1.70;;
52450;SDS011;38366;53.176;6.540;2022-11-15T14:55:02;6.65;;;1.88;;
52450;SDS011;38366;53.176;6.540;2022-11-15T14:57:34;4.75;;;1.85;;
52450;SDS011;38366;53.176;6.540;2022-11-15T15:00:00;4.23;;;1.70;;
52450;SDS011;38366;53.176;6.540;2022-11-15T15:02:26;3.30;;;1.60;;
52450;SDS011;38366;53.176;6.540;2022-11-15T15:07:18;2.58;;;1.30;;
52450;SDS011;38366;53.176;6.540;2022-11-15T15:09:44;1.90;;;1.40;;
52450;SDS011;38366;53.176;6.540;2022-11-15T15:12:17;3.97;;;1.48;;
52450;SDS011;38366;53.176;6.540;2022-11-15T15:14:45;2.92;;;1.48;;
52450;SDS011;38366;53.176;6.540;2022-11-15T15:17:12;3.38;;;1.48;;
52450;SDS011;38366;53.176;6.540;2022-11-15T15:19:37;3.30;;;1.52;;
52450;SDS011;38366;53.176;6.540;2022-11-15T15:22:03;3.80;;;1.55;;
52450;SDS011;38366;53.176;6.540;2022-11-15T15:24:29;2.92;;;1.30;;
52450;SDS011;38366;53.176;6.540;2022-11-15T15:26:55;2.10;;;1.40;;
52450;SDS011;38366;53.176;6.540;2022-11-15T15:29:20;3.33;;;1.55;;
52450;SDS011;38366;53.176;6.540;2022-11-15T15:31:46;2.72;;;1.55;;
52450;SDS011;38366;53.176;6.540;2022-11-15T15:34:12;3.40;;;1.60;;
52450;SDS011;38366;53.176;6.540;2022-11-15T15:36:37;1.88;;;1.23;;
52450;SDS011;38366;53.176;6.540;2022-11-15T15:39:03;4.05;;;1.70;;
52450;SDS011;38366;53.176;6.540;2022-11-15T15:41:29;3.27;;;1.60;;
52450;SDS011;38366;53.176;6.540;2022-11-15T15:43:54;2.57;;;1.50;;
52450;SDS011;38366;53.176;6.540;2022-11-15T15:46:20;4.28;;;1.63;;
52450;SDS011;38366;53.176;6.540;2022-11-15T15:48:46;2.80;;;1.80;;
52450;SDS011;38366;53.176;6.540;2022-11-15T15:51:12;2.72;;;2.13;;
52450;SDS011;38366;53.176;6.540;2022-11-15T15:53:38;4.13;;;2.30;;
52450;SDS011;38366;53.176;6.540;2022-11-15T15:56:04;3.33;;;2.33;;
52450;SDS011;38366;53.176;6.540;2022-11-15T15:58:33;5.22;;;2.58;;
52450;SDS011;38366;53.176;6.540;2022-11-15T16:00:59;2.75;;;2.13;;
52450;SDS011;38366;53.176;6.540;2022-11-15T16:03:25;4.75;;;2.88;;
52450;SDS011;38366;53.176;6.540;2022-11-15T16:05:52;3.33;;;2.45;;
52450;SDS011;38366;53.176;6.540;2022-11-15T16:08:19;5.57;;;3.20;;
52450;SDS011;38366;53.176;6.540;2022-11-15T16:10:46;7.00;;;3.00;;
52450;SDS011;38366;53.176;6.540;2022-11-15T16:13:12;4.82;;;3.00;;
52450;SDS011;38366;53.176;6.540;2022-11-15T16:15:38;4.90;;;3.30;;
52450;SDS011;38366;53.176;6.540;2022-11-15T16:18:04;5.45;;;3.03;;
52450;SDS011;38366;53.176;6.540;2022-11-15T16:23:05;4.97;;;3.50;;
52450;SDS011;38366;53.176;6.540;2022-11-15T16:25:44;5.53;;;3.50;;
52450;SDS011;38366;53.176;6.540;2022-11-15T16:30:44;6.57;;;3.50;;
52450;SDS011;38366;53.176;6.540;2022-11-15T16:33:09;8.95;;;4.05;;
52450;SDS011;38366;53.176;6.540;2022-11-15T16:35:35;5.93;;;3.50;;
52450;SDS011;38366;53.176;6.540;2022-11-15T16:38:01;6.57;;;3.83;;
52450;SDS011;38366;53.176;6.540;2022-11-15T16:40:27;7.90;;;3.87;;
52450;SDS011;38366;53.176;6.540;2022-11-15T16:42:58;5.97;;;3.83;;
52450;SDS011;38366;53.176;6.540;2022-11-15T16:45:26;5.35;;;3.33;;
52450;SDS011;38366;53.176;6.540;2022-11-15T16:47:55;6.75;;;3.40;;
52450;SDS011;38366;53.176;6.540;2022-11-15T16:50:22;6.30;;;3.33;;
52450;SDS011;38366;53.176;6.540;2022-11-15T16:52:53;6.65;;;3.45;;
52450;SDS011;38366;53.176;6.540;2022-11-15T16:55:21;4.70;;;3.38;;
52450;SDS011;38366;53.176;6.540;2022-11-15T16:57:48;7.25;;;3.30;;
52450;SDS011;38366;53.176;6.540;2022-11-15T17:00:14;9.93;;;4.20;;
52450;SDS011;38366;53.176;6.540;2022-11-15T17:02:42;7.40;;;4.43;;
52450;SDS011;38366;53.176;6.540;2022-11-15T17:05:09;4.63;;;3.33;;
52450;SDS011;38366;53.176;6.540;2022-11-15T17:07:38;4.30;;;2.80;;
52450;SDS011;38366;53.176;6.540;2022-11-15T17:10:25;5.57;;;2.90;;
52450;SDS011;38366;53.176;6.540;2022-11-15T17:13:00;5.53;;;3.30;;
52450;SDS011;38366;53.176;6.540;2022-11-15T17:15:25;5.65;;;3.00;;
52450;SDS011;38366;53.176;6.540;2022-11-15T17:17:52;4.15;;;2.70;;
52450;SDS011;38366;53.176;6.540;2022-11-15T17:20:18;3.88;;;2.65;;
52450;SDS011;38366;53.176;6.540;2022-11-15T17:22:46;3.72;;;2.67;;
52450;SDS011;38366;53.176;6.540;2022-11-15T17:25:12;4.10;;;3.13;;
52450;SDS011;38366;53.176;6.540;2022-11-15T17:27:38;4.63;;;2.55;;
52450;SDS011;38366;53.176;6.540;2022-11-15T17:30:05;3.70;;;2.03;;
52450;SDS011;38366;53.176;6.540;2022-11-15T17:32:31;2.92;;;2.17;;
52450;SDS011;38366;53.176;6.540;2022-11-15T17:35:01;5.53;;;2.55;;
52450;SDS011;38366;53.176;6.540;2022-11-15T17:37:27;3.28;;;2.13;;
52450;SDS011;38366;53.176;6.540;2022-11-15T17:39:56;4.43;;;2.30;;
52450;SDS011;38366;53.176;6.540;2022-11-15T17:42:21;3.80;;;2.00;;
52450;SDS011;38366;53.176;6.540;2022-11-15T17:44:47;5.80;;;2.20;;
52450;SDS011;38366;53.176;6.540;2022-11-15T17:47:13;3.20;;;2.13;;
52450;SDS011;38366;53.176;6.540;2022-11-15T17:49:44;5.10;;;2.25;;